sensor_id;sensor_type;location;lat;lon;timestamp;P1;durP1;ratioP1;P2;durP2;ratioP2
40284;SDS011;25997;50.214;19.354;2022-07-23T00:00:19;21.08;;;18.55;;
40284;SDS011;25997;50.214;19.354;2022-07-23T00:03:22;28.13;;;21.58;;
40284;SDS011;25997;50.214;19.354;2022-07-23T00:06:25;21.75;;;18.58;;
40284;SDS011;25997;50.214;19.354;2022-07-23T00:09:28;21.88;;;18.70;;
40284;SDS011;25997;50.214;19.354;2022-07-23T00:12:32;23.52;;;18.83;;
40284;SDS011;25997;50.214;19.354;2022-07-23T00:15:37;19.90;;;16.65;;
40284;SDS011;25997;50.214;19.354;2022-07-23T00:18:40;24.80;;;17.75;;
40284;SDS011;25997;50.214;19.354;2022-07-23T00:21:42;23.38;;;17.17;;
40284;SDS011;25997;50.214;19.354;2022-07-23T00:24:45;23.45;;;17.15;;
40284;SDS011;25997;50.214;19.354;2022-07-23T00:27:47;20.23;;;16.80;;
40284;SDS011;25997;50.214;19.354;2022-07-23T00:30:51;18.92;;;16.95;;
40284;SDS011;25997;50.214;19.354;2022-07-23T00:33:55;19.70;;;16.45;;
40284;SDS011;25997;50.214;19.354;2022-07-23T00:36:58;23.40;;;16.58;;
40284;SDS011;25997;50.214;19.354;2022-07-23T00:40:00;23.73;;;19.80;;
40284;SDS011;25997;50.214;19.354;2022-07-23T00:43:03;23.88;;;20.15;;
40284;SDS011;25997;50.214;19.354;2022-07-23T00:46:07;23.95;;;18.25;;
40284;SDS011;25997;50.214;19.354;2022-07-23T00:49:10;19.88;;;15.85;;
40284;SDS011;25997;50.214;19.354;2022-07-23T00:52:12;22.20;;;17.33;;
40284;SDS011;25997;50.214;19.354;2022-07-23T00:55:16;19.05;;;17.02;;
40284;SDS011;25997;50.214;19.354;2022-07-23T00:58:19;19.27;;;17.27;;
40284;SDS011;25997;50.214;19.354;2022-07-23T01:01:23;29.25;;;22.92;;
40284;SDS011;25997;50.214;19.354;2022-07-23T01:04:26;25.67;;;21.08;;
40284;SDS011;25997;50.214;19.354;2022-07-23T01:07:28;26.38;;;21.20;;
40284;SDS011;25997;50.214;19.354;2022-07-23T01:10:31;28.15;;;20.92;;
40284;SDS011;25997;50.214;19.354;2022-07-23T01:13:34;20.52;;;17.95;;
40284;SDS011;25997;50.214;19.354;2022-07-23T01:16:38;22.38;;;19.70;;
40284;SDS011;25997;50.214;19.354;2022-07-23T01:19:41;23.27;;;20.05;;
40284;SDS011;25997;50.214;19.354;2022-07-23T01:22:45;23.20;;;20.42;;
40284;SDS011;25997;50.214;19.354;2022-07-23T01:25:48;22.02;;;19.77;;
40284;SDS011;25997;50.214;19.354;2022-07-23T01:28:53;25.25;;;20.20;;
40284;SDS011;25997;50.214;19.354;2022-07-23T01:31:56;24.15;;;21.48;;
40284;SDS011;25997;50.214;19.354;2022-07-23T01:34:59;24.17;;;21.52;;
40284;SDS011;25997;50.214;19.354;2022-07-23T01:38:04;23.88;;;21.30;;
40284;SDS011;25997;50.214;19.354;2022-07-23T01:41:06;27.70;;;22.77;;
40284;SDS011;25997;50.214;19.354;2022-07-23T01:44:09;21.65;;;19.40;;
40284;SDS011;25997;50.214;19.354;2022-07-23T01:47:14;23.70;;;21.20;;
40284;SDS011;25997;50.214;19.354;2022-07-23T01:50:17;21.90;;;19.75;;
40284;SDS011;25997;50.214;19.354;2022-07-23T01:53:36;25.15;;;22.73;;
40284;SDS011;25997;50.214;19.354;2022-07-23T01:56:39;26.95;;;24.30;;
40284;SDS011;25997;50.214;19.354;2022-07-23T01:59:42;26.80;;;24.27;;
40284;SDS011;25997;50.214;19.354;2022-07-23T02:02:44;25.85;;;23.45;;
40284;SDS011;25997;50.214;19.354;2022-07-23T02:05:47;26.20;;;23.48;;
40284;SDS011;25997;50.214;19.354;2022-07-23T02:08:51;25.30;;;22.63;;
40284;SDS011;25997;50.214;19.354;2022-07-23T02:11:56;25.00;;;22.50;;
40284;SDS011;25997;50.214;19.354;2022-07-23T02:14:59;25.17;;;22.58;;
40284;SDS011;25997;50.214;19.354;2022-07-23T02:18:02;24.48;;;21.92;;
40284;SDS011;25997;50.214;19.354;2022-07-23T02:21:05;26.42;;;23.92;;
40284;SDS011;25997;50.214;19.354;2022-07-23T02:24:10;26.42;;;23.63;;
40284;SDS011;25997;50.214;19.354;2022-07-23T02:27:15;25.02;;;22.55;;
40284;SDS011;25997;50.214;19.354;2022-07-23T02:30:18;25.73;;;23.13;;
40284;SDS011;25997;50.214;19.354;2022-07-23T02:33:21;24.10;;;21.55;;
40284;SDS011;25997;50.214;19.354;2022-07-23T02:36:24;26.48;;;23.80;;
40284;SDS011;25997;50.214;19.354;2022-07-23T02:39:29;24.10;;;21.98;;
40284;SDS011;25997;50.214;19.354;2022-07-23T02:42:32;25.25;;;22.73;;
40284;SDS011;25997;50.214;19.354;2022-07-23T02:45:34;25.15;;;22.63;;
40284;SDS011;25997;50.214;19.354;2022-07-23T02:48:37;26.38;;;22.75;;
40284;SDS011;25997;50.214;19.354;2022-07-23T02:51:39;25.77;;;23.02;;
40284;SDS011;25997;50.214;19.354;2022-07-23T02:54:44;32.97;;;28.27;;
40284;SDS011;25997;50.214;19.354;2022-07-23T02:57:50;37.60;;;33.70;;
40284;SDS011;25997;50.214;19.354;2022-07-23T03:00:53;39.05;;;34.88;;
40284;SDS011;25997;50.214;19.354;2022-07-23T03:03:56;38.83;;;34.65;;
40284;SDS011;25997;50.214;19.354;2022-07-23T03:06:58;42.25;;;36.78;;
40284;SDS011;25997;50.214;19.354;2022-07-23T03:10:02;38.03;;;34.25;;
40284;SDS011;25997;50.214;19.354;2022-07-23T03:13:05;31.10;;;27.75;;
40284;SDS011;25997;50.214;19.354;2022-07-23T03:16:08;39.85;;;36.13;;
40284;SDS011;25997;50.214;19.354;2022-07-23T03:19:11;40.33;;;35.67;;
40284;SDS011;25997;50.214;19.354;2022-07-23T03:22:15;31.83;;;28.73;;
40284;SDS011;25997;50.214;19.354;2022-07-23T03:25:19;28.33;;;25.55;;
40284;SDS011;25997;50.214;19.354;2022-07-23T03:28:22;24.85;;;22.52;;
40284;SDS011;25997;50.214;19.354;2022-07-23T03:31:25;28.02;;;25.05;;
40284;SDS011;25997;50.214;19.354;2022-07-23T03:34:27;31.25;;;28.13;;
40284;SDS011;25997;50.214;19.354;2022-07-23T03:37:30;30.20;;;27.20;;
40284;SDS011;25997;50.214;19.354;2022-07-23T03:40:35;29.80;;;26.50;;
40284;SDS011;25997;50.214;19.354;2022-07-23T03:43:37;26.23;;;23.65;;
40284;SDS011;25997;50.214;19.354;2022-07-23T03:46:40;27.30;;;24.58;;
40284;SDS011;25997;50.214;19.354;2022-07-23T03:49:44;28.35;;;25.70;;
40284;SDS011;25997;50.214;19.354;2022-07-23T03:52:47;28.30;;;25.58;;
40284;SDS011;25997;50.214;19.354;2022-07-23T03:55:51;28.33;;;25.52;;
40284;SDS011;25997;50.214;19.354;2022-07-23T03:58:53;28.67;;;25.85;;
40284;SDS011;25997;50.214;19.354;2022-07-23T04:01:56;28.83;;;26.00;;
40284;SDS011;25997;50.214;19.354;2022-07-23T04:04:59;31.60;;;27.73;;
40284;SDS011;25997;50.214;19.354;2022-07-23T04:08:02;28.77;;;25.73;;
40284;SDS011;25997;50.214;19.354;2022-07-23T04:11:07;26.77;;;24.10;;
40284;SDS011;25997;50.214;19.354;2022-07-23T04:14:10;27.52;;;24.38;;
40284;SDS011;25997;50.214;19.354;2022-07-23T04:17:13;24.35;;;22.08;;
40284;SDS011;25997;50.214;19.354;2022-07-23T04:20:16;23.92;;;21.70;;
40284;SDS011;25997;50.214;19.354;2022-07-23T04:23:27;24.30;;;21.98;;
40284;SDS011;25997;50.214;19.354;2022-07-23T04:26:31;33.45;;;30.23;;
40284;SDS011;25997;50.214;19.354;2022-07-23T04:29:33;31.92;;;26.73;;
40284;SDS011;25997;50.214;19.354;2022-07-23T04:32:36;27.77;;;25.15;;
40284;SDS011;25997;50.214;19.354;2022-07-23T04:35:46;28.88;;;25.88;;
40284;SDS011;25997;50.214;19.354;2022-07-23T04:38:53;25.05;;;22.70;;
40284;SDS011;25997;50.214;19.354;2022-07-23T04:41:58;28.35;;;25.30;;
40284;SDS011;25997;50.214;19.354;2022-07-23T04:45:02;27.30;;;24.70;;
40284;SDS011;25997;50.214;19.354;2022-07-23T04:48:05;27.48;;;24.75;;
40284;SDS011;25997;50.214;19.354;2022-07-23T04:51:08;27.48;;;24.63;;
40284;SDS011;25997;50.214;19.354;2022-07-23T04:54:10;26.33;;;23.83;;
40284;SDS011;25997;50.214;19.354;2022-07-23T04:57:14;27.23;;;24.73;;
40284;SDS011;25997;50.214;19.354;2022-07-23T05:00:17;28.95;;;26.00;;
40284;SDS011;25997;50.214;19.354;2022-07-23T05:03:20;29.58;;;26.65;;
40284;SDS011;25997;50.214;19.354;2022-07-23T05:06:23;28.80;;;25.95;;
40284;SDS011;25997;50.214;19.354;2022-07-23T05:09:25;29.48;;;26.45;;
40284;SDS011;25997;50.214;19.354;2022-07-23T05:12:30;30.35;;;27.40;;
40284;SDS011;25997;50.214;19.354;2022-07-23T05:15:33;27.85;;;25.05;;
40284;SDS011;25997;50.214;19.354;2022-07-23T05:18:37;29.33;;;26.48;;
40284;SDS011;25997;50.214;19.354;2022-07-23T05:21:40;27.92;;;25.42;;
40284;SDS011;25997;50.214;19.354;2022-07-23T05:24:42;27.65;;;25.23;;
40284;SDS011;25997;50.214;19.354;2022-07-23T05:27:47;27.65;;;24.77;;
40284;SDS011;25997;50.214;19.354;2022-07-23T05:30:50;28.55;;;25.60;;
40284;SDS011;25997;50.214;19.354;2022-07-23T05:33:53;25.60;;;23.30;;
40284;SDS011;25997;50.214;19.354;2022-07-23T05:36:58;29.27;;;26.30;;
40284;SDS011;25997;50.214;19.354;2022-07-23T05:40:01;29.30;;;26.65;;
40284;SDS011;25997;50.214;19.354;2022-07-23T05:43:06;28.65;;;25.70;;
40284;SDS011;25997;50.214;19.354;2022-07-23T05:46:09;27.08;;;24.63;;
40284;SDS011;25997;50.214;19.354;2022-07-23T05:49:15;28.00;;;25.25;;
40284;SDS011;25997;50.214;19.354;2022-07-23T05:52:55;27.73;;;25.00;;
40284;SDS011;25997;50.214;19.354;2022-07-23T05:56:26;26.33;;;23.73;;
40284;SDS011;25997;50.214;19.354;2022-07-23T05:59:30;24.20;;;21.65;;
40284;SDS011;25997;50.214;19.354;2022-07-23T06:02:34;23.98;;;21.08;;
40284;SDS011;25997;50.214;19.354;2022-07-23T06:05:37;24.67;;;22.42;;
40284;SDS011;25997;50.214;19.354;2022-07-23T06:08:40;22.88;;;20.88;;
40284;SDS011;25997;50.214;19.354;2022-07-23T06:11:43;23.85;;;21.45;;
40284;SDS011;25997;50.214;19.354;2022-07-23T06:14:47;25.95;;;23.45;;
40284;SDS011;25997;50.214;19.354;2022-07-23T06:17:52;24.70;;;22.60;;
40284;SDS011;25997;50.214;19.354;2022-07-23T06:20:55;23.33;;;21.08;;
40284;SDS011;25997;50.214;19.354;2022-07-23T06:23:57;24.83;;;22.50;;
40284;SDS011;25997;50.214;19.354;2022-07-23T06:27:00;23.40;;;21.10;;
40284;SDS011;25997;50.214;19.354;2022-07-23T06:30:05;22.17;;;19.85;;
40284;SDS011;25997;50.214;19.354;2022-07-23T06:33:08;21.58;;;19.38;;
40284;SDS011;25997;50.214;19.354;2022-07-23T06:36:12;21.55;;;19.70;;
40284;SDS011;25997;50.214;19.354;2022-07-23T06:39:15;22.90;;;20.52;;
40284;SDS011;25997;50.214;19.354;2022-07-23T06:42:21;20.33;;;18.38;;
40284;SDS011;25997;50.214;19.354;2022-07-23T06:45:32;19.25;;;17.45;;
40284;SDS011;25997;50.214;19.354;2022-07-23T06:48:35;19.58;;;17.77;;
40284;SDS011;25997;50.214;19.354;2022-07-23T06:51:38;18.13;;;16.45;;
40284;SDS011;25997;50.214;19.354;2022-07-23T06:54:40;20.17;;;18.08;;
40284;SDS011;25997;50.214;19.354;2022-07-23T06:57:43;18.17;;;16.25;;
40284;SDS011;25997;50.214;19.354;2022-07-23T07:00:47;17.90;;;16.17;;
40284;SDS011;25997;50.214;19.354;2022-07-23T07:03:49;17.63;;;15.88;;
40284;SDS011;25997;50.214;19.354;2022-07-23T07:06:52;17.30;;;15.80;;
40284;SDS011;25997;50.214;19.354;2022-07-23T07:09:54;16.20;;;14.52;;
40284;SDS011;25997;50.214;19.354;2022-07-23T07:12:57;15.60;;;13.98;;
40284;SDS011;25997;50.214;19.354;2022-07-23T07:16:01;16.52;;;15.02;;
40284;SDS011;25997;50.214;19.354;2022-07-23T07:19:03;15.05;;;13.75;;
40284;SDS011;25997;50.214;19.354;2022-07-23T07:22:06;16.65;;;15.02;;
40284;SDS011;25997;50.214;19.354;2022-07-23T07:25:09;17.20;;;15.52;;
40284;SDS011;25997;50.214;19.354;2022-07-23T07:28:11;16.67;;;15.25;;
40284;SDS011;25997;50.214;19.354;2022-07-23T07:31:15;16.52;;;14.93;;
40284;SDS011;25997;50.214;19.354;2022-07-23T07:34:18;19.73;;;16.63;;
40284;SDS011;25997;50.214;19.354;2022-07-23T07:37:21;15.23;;;13.85;;
40284;SDS011;25997;50.214;19.354;2022-07-23T07:40:23;15.88;;;14.30;;
40284;SDS011;25997;50.214;19.354;2022-07-23T07:43:26;17.17;;;15.65;;
40284;SDS011;25997;50.214;19.354;2022-07-23T07:46:30;15.32;;;14.00;;
40284;SDS011;25997;50.214;19.354;2022-07-23T07:49:33;15.52;;;13.98;;
40284;SDS011;25997;50.214;19.354;2022-07-23T07:52:35;13.52;;;12.13;;
40284;SDS011;25997;50.214;19.354;2022-07-23T07:55:38;13.32;;;12.05;;
40284;SDS011;25997;50.214;19.354;2022-07-23T07:58:40;14.15;;;12.15;;
40284;SDS011;25997;50.214;19.354;2022-07-23T08:01:44;13.10;;;11.90;;
40284;SDS011;25997;50.214;19.354;2022-07-23T08:04:47;14.60;;;13.10;;
40284;SDS011;25997;50.214;19.354;2022-07-23T08:07:50;14.60;;;13.27;;
40284;SDS011;25997;50.214;19.354;2022-07-23T08:10:53;15.40;;;14.02;;
40284;SDS011;25997;50.214;19.354;2022-07-23T08:13:56;16.25;;;14.65;;
40284;SDS011;25997;50.214;19.354;2022-07-23T08:17:00;16.90;;;15.23;;
40284;SDS011;25997;50.214;19.354;2022-07-23T08:20:03;16.00;;;14.65;;
40284;SDS011;25997;50.214;19.354;2022-07-23T08:23:09;16.05;;;14.40;;
40284;SDS011;25997;50.214;19.354;2022-07-23T08:26:11;16.17;;;14.77;;
40284;SDS011;25997;50.214;19.354;2022-07-23T08:29:14;17.90;;;14.35;;
40284;SDS011;25997;50.214;19.354;2022-07-23T08:32:18;15.18;;;13.63;;
40284;SDS011;25997;50.214;19.354;2022-07-23T08:35:22;15.52;;;13.90;;
40284;SDS011;25997;50.214;19.354;2022-07-23T08:38:27;15.35;;;13.85;;
40284;SDS011;25997;50.214;19.354;2022-07-23T08:41:30;14.75;;;13.18;;
40284;SDS011;25997;50.214;19.354;2022-07-23T08:44:33;13.13;;;11.93;;
40284;SDS011;25997;50.214;19.354;2022-07-23T08:47:38;15.43;;;14.00;;
40284;SDS011;25997;50.214;19.354;2022-07-23T08:50:42;15.10;;;13.00;;
40284;SDS011;25997;50.214;19.354;2022-07-23T08:53:46;13.63;;;12.43;;
40284;SDS011;25997;50.214;19.354;2022-07-23T08:56:49;14.73;;;12.25;;
40284;SDS011;25997;50.214;19.354;2022-07-23T08:59:52;13.65;;;12.55;;
40284;SDS011;25997;50.214;19.354;2022-07-23T09:02:56;14.13;;;12.82;;
40284;SDS011;25997;50.214;19.354;2022-07-23T09:05:59;12.30;;;11.25;;
40284;SDS011;25997;50.214;19.354;2022-07-23T09:09:17;15.10;;;10.75;;
40284;SDS011;25997;50.214;19.354;2022-07-23T09:12:21;11.25;;;9.73;;
40284;SDS011;25997;50.214;19.354;2022-07-23T09:15:27;12.38;;;11.07;;
40284;SDS011;25997;50.214;19.354;2022-07-23T09:18:35;10.75;;;9.68;;
40284;SDS011;25997;50.214;19.354;2022-07-23T09:21:40;11.38;;;10.35;;
40284;SDS011;25997;50.214;19.354;2022-07-23T09:28:07;12.45;;;11.27;;
40284;SDS011;25997;50.214;19.354;2022-07-23T09:31:10;12.10;;;10.95;;
40284;SDS011;25997;50.214;19.354;2022-07-23T09:34:14;10.73;;;9.80;;
40284;SDS011;25997;50.214;19.354;2022-07-23T09:37:19;10.75;;;9.75;;
40284;SDS011;25997;50.214;19.354;2022-07-23T09:40:22;11.90;;;10.82;;
40284;SDS011;25997;50.214;19.354;2022-07-23T09:43:25;10.98;;;9.98;;
40284;SDS011;25997;50.214;19.354;2022-07-23T09:46:29;9.63;;;8.77;;
40284;SDS011;25997;50.214;19.354;2022-07-23T09:49:33;11.23;;;10.30;;
40284;SDS011;25997;50.214;19.354;2022-07-23T09:52:42;11.65;;;10.35;;
40284;SDS011;25997;50.214;19.354;2022-07-23T09:55:46;10.05;;;9.23;;
40284;SDS011;25997;50.214;19.354;2022-07-23T09:58:49;10.90;;;9.80;;
40284;SDS011;25997;50.214;19.354;2022-07-23T10:02:02;11.05;;;9.82;;
40284;SDS011;25997;50.214;19.354;2022-07-23T10:05:15;11.32;;;10.07;;
40284;SDS011;25997;50.214;19.354;2022-07-23T10:08:44;9.40;;;8.60;;
40284;SDS011;25997;50.214;19.354;2022-07-23T10:12:09;11.25;;;10.32;;
40284;SDS011;25997;50.214;19.354;2022-07-23T10:15:30;11.73;;;10.82;;
40284;SDS011;25997;50.214;19.354;2022-07-23T10:18:32;11.50;;;10.50;;
40284;SDS011;25997;50.214;19.354;2022-07-23T10:21:39;11.55;;;10.48;;
40284;SDS011;25997;50.214;19.354;2022-07-23T10:24:54;11.38;;;10.27;;
40284;SDS011;25997;50.214;19.354;2022-07-23T10:28:04;11.60;;;10.60;;
40284;SDS011;25997;50.214;19.354;2022-07-23T10:31:19;10.82;;;9.93;;
40284;SDS011;25997;50.214;19.354;2022-07-23T10:34:30;10.80;;;9.57;;
40284;SDS011;25997;50.214;19.354;2022-07-23T10:37:43;11.05;;;10.05;;
40284;SDS011;25997;50.214;19.354;2022-07-23T10:40:54;11.10;;;10.10;;
40284;SDS011;25997;50.214;19.354;2022-07-23T10:44:08;12.02;;;10.85;;
40284;SDS011;25997;50.214;19.354;2022-07-23T10:47:12;12.88;;;11.73;;
40284;SDS011;25997;50.214;19.354;2022-07-23T10:50:40;11.82;;;10.70;;
40284;SDS011;25997;50.214;19.354;2022-07-23T10:53:55;11.45;;;10.35;;
40284;SDS011;25997;50.214;19.354;2022-07-23T10:57:05;21.13;;;19.25;;
40284;SDS011;25997;50.214;19.354;2022-07-23T11:00:13;12.00;;;11.10;;
40284;SDS011;25997;50.214;19.354;2022-07-23T11:03:34;20.77;;;18.85;;
40284;SDS011;25997;50.214;19.354;2022-07-23T11:10:22;10.18;;;9.48;;
40284;SDS011;25997;50.214;19.354;2022-07-23T11:13:42;10.32;;;9.32;;
40284;SDS011;25997;50.214;19.354;2022-07-23T11:16:47;10.68;;;9.77;;
40284;SDS011;25997;50.214;19.354;2022-07-23T11:23:20;10.02;;;9.05;;
40284;SDS011;25997;50.214;19.354;2022-07-23T11:29:45;10.80;;;9.73;;
40284;SDS011;25997;50.214;19.354;2022-07-23T11:32:49;10.65;;;9.80;;
40284;SDS011;25997;50.214;19.354;2022-07-23T11:36:00;11.32;;;10.30;;
40284;SDS011;25997;50.214;19.354;2022-07-23T11:39:05;12.65;;;9.98;;
40284;SDS011;25997;50.214;19.354;2022-07-23T11:42:10;10.40;;;9.60;;
40284;SDS011;25997;50.214;19.354;2022-07-23T11:45:20;12.13;;;10.98;;
40284;SDS011;25997;50.214;19.354;2022-07-23T11:48:24;11.38;;;10.38;;
40284;SDS011;25997;50.214;19.354;2022-07-23T11:51:28;11.57;;;10.63;;
40284;SDS011;25997;50.214;19.354;2022-07-23T11:54:32;12.18;;;11.07;;
40284;SDS011;25997;50.214;19.354;2022-07-23T11:57:38;11.27;;;10.27;;
40284;SDS011;25997;50.214;19.354;2022-07-23T12:00:41;13.18;;;12.02;;
40284;SDS011;25997;50.214;19.354;2022-07-23T12:03:48;11.30;;;10.45;;
40284;SDS011;25997;50.214;19.354;2022-07-23T12:06:51;11.18;;;10.27;;
40284;SDS011;25997;50.214;19.354;2022-07-23T12:09:55;11.15;;;10.27;;
40284;SDS011;25997;50.214;19.354;2022-07-23T12:13:00;13.38;;;12.13;;
40284;SDS011;25997;50.214;19.354;2022-07-23T12:16:05;13.07;;;11.20;;
40284;SDS011;25997;50.214;19.354;2022-07-23T12:19:08;25.30;;;23.50;;
40284;SDS011;25997;50.214;19.354;2022-07-23T12:22:11;12.63;;;11.63;;
40284;SDS011;25997;50.214;19.354;2022-07-23T12:25:15;13.43;;;10.43;;
40284;SDS011;25997;50.214;19.354;2022-07-23T12:28:26;13.15;;;11.70;;
40284;SDS011;25997;50.214;19.354;2022-07-23T12:31:30;12.45;;;11.50;;
40284;SDS011;25997;50.214;19.354;2022-07-23T12:34:32;10.82;;;9.75;;
40284;SDS011;25997;50.214;19.354;2022-07-23T12:37:36;11.57;;;10.52;;
40284;SDS011;25997;50.214;19.354;2022-07-23T12:40:42;11.63;;;10.63;;
40284;SDS011;25997;50.214;19.354;2022-07-23T12:43:47;12.25;;;10.10;;
40284;SDS011;25997;50.214;19.354;2022-07-23T12:46:51;14.88;;;13.70;;
40284;SDS011;25997;50.214;19.354;2022-07-23T12:49:54;12.25;;;11.13;;
40284;SDS011;25997;50.214;19.354;2022-07-23T12:53:01;12.45;;;11.20;;
40284;SDS011;25997;50.214;19.354;2022-07-23T12:56:08;14.05;;;12.00;;
40284;SDS011;25997;50.214;19.354;2022-07-23T12:59:14;13.35;;;10.75;;
40284;SDS011;25997;50.214;19.354;2022-07-23T13:02:17;14.88;;;11.77;;
40284;SDS011;25997;50.214;19.354;2022-07-23T13:05:19;12.20;;;11.05;;
40284;SDS011;25997;50.214;19.354;2022-07-23T13:08:22;11.50;;;10.57;;
40284;SDS011;25997;50.214;19.354;2022-07-23T13:11:26;11.00;;;10.00;;
40284;SDS011;25997;50.214;19.354;2022-07-23T13:14:30;11.73;;;10.68;;
40284;SDS011;25997;50.214;19.354;2022-07-23T13:17:32;11.27;;;10.48;;
40284;SDS011;25997;50.214;19.354;2022-07-23T13:20:36;11.27;;;10.38;;
40284;SDS011;25997;50.214;19.354;2022-07-23T13:23:39;11.73;;;10.82;;
40284;SDS011;25997;50.214;19.354;2022-07-23T13:26:41;13.90;;;12.48;;
40284;SDS011;25997;50.214;19.354;2022-07-23T13:29:46;18.10;;;14.68;;
40284;SDS011;25997;50.214;19.354;2022-07-23T13:32:48;12.07;;;10.98;;
40284;SDS011;25997;50.214;19.354;2022-07-23T13:35:51;15.15;;;13.65;;
40284;SDS011;25997;50.214;19.354;2022-07-23T13:38:55;11.40;;;10.27;;
40284;SDS011;25997;50.214;19.354;2022-07-23T13:41:57;9.90;;;9.10;;
40284;SDS011;25997;50.214;19.354;2022-07-23T13:45:02;10.82;;;9.88;;
40284;SDS011;25997;50.214;19.354;2022-07-23T13:48:05;11.98;;;11.02;;
40284;SDS011;25997;50.214;19.354;2022-07-23T13:51:08;10.63;;;9.52;;
40284;SDS011;25997;50.214;19.354;2022-07-23T13:54:11;12.40;;;11.23;;
40284;SDS011;25997;50.214;19.354;2022-07-23T13:57:14;11.95;;;10.35;;
40284;SDS011;25997;50.214;19.354;2022-07-23T14:00:18;11.18;;;10.02;;
40284;SDS011;25997;50.214;19.354;2022-07-23T14:03:21;11.77;;;10.73;;
40284;SDS011;25997;50.214;19.354;2022-07-23T14:06:24;12.57;;;11.27;;
40284;SDS011;25997;50.214;19.354;2022-07-23T14:09:27;11.85;;;10.85;;
40284;SDS011;25997;50.214;19.354;2022-07-23T14:12:30;14.50;;;13.15;;
40284;SDS011;25997;50.214;19.354;2022-07-23T14:15:35;12.77;;;11.57;;
40284;SDS011;25997;50.214;19.354;2022-07-23T14:18:41;13.65;;;11.15;;
40284;SDS011;25997;50.214;19.354;2022-07-23T14:21:43;33.85;;;25.23;;
40284;SDS011;25997;50.214;19.354;2022-07-23T14:24:46;25.13;;;22.52;;
40284;SDS011;25997;50.214;19.354;2022-07-23T14:27:48;24.90;;;22.80;;
40284;SDS011;25997;50.214;19.354;2022-07-23T14:30:52;16.45;;;14.95;;
40284;SDS011;25997;50.214;19.354;2022-07-23T14:33:55;15.95;;;14.27;;
40284;SDS011;25997;50.214;19.354;2022-07-23T14:36:58;14.52;;;13.02;;
40284;SDS011;25997;50.214;19.354;2022-07-23T14:40:01;14.23;;;12.88;;
40284;SDS011;25997;50.214;19.354;2022-07-23T14:43:04;14.57;;;13.20;;
40284;SDS011;25997;50.214;19.354;2022-07-23T14:46:08;14.38;;;13.07;;
40284;SDS011;25997;50.214;19.354;2022-07-23T14:49:11;16.60;;;14.73;;
40284;SDS011;25997;50.214;19.354;2022-07-23T14:52:14;22.10;;;19.80;;
40284;SDS011;25997;50.214;19.354;2022-07-23T14:55:16;17.70;;;16.10;;
40284;SDS011;25997;50.214;19.354;2022-07-23T14:58:19;16.90;;;15.32;;
40284;SDS011;25997;50.214;19.354;2022-07-23T15:01:23;20.05;;;17.95;;
40284;SDS011;25997;50.214;19.354;2022-07-23T15:04:26;15.18;;;13.75;;
40284;SDS011;25997;50.214;19.354;2022-07-23T15:07:28;18.73;;;15.48;;
40284;SDS011;25997;50.214;19.354;2022-07-23T15:10:31;15.80;;;14.20;;
40284;SDS011;25997;50.214;19.354;2022-07-23T15:13:34;15.90;;;14.35;;
40284;SDS011;25997;50.214;19.354;2022-07-23T15:16:38;15.75;;;14.35;;
40284;SDS011;25997;50.214;19.354;2022-07-23T15:19:41;15.50;;;14.05;;
40284;SDS011;25997;50.214;19.354;2022-07-23T15:22:44;16.33;;;13.00;;
40284;SDS011;25997;50.214;19.354;2022-07-23T15:25:48;15.90;;;12.80;;
40284;SDS011;25997;50.214;19.354;2022-07-23T15:28:51;18.15;;;12.63;;
40284;SDS011;25997;50.214;19.354;2022-07-23T15:31:55;16.80;;;12.48;;
40284;SDS011;25997;50.214;19.354;2022-07-23T15:34:57;16.65;;;11.50;;
40284;SDS011;25997;50.214;19.354;2022-07-23T15:38:01;14.23;;;12.75;;
40284;SDS011;25997;50.214;19.354;2022-07-23T15:41:03;15.45;;;12.45;;
40284;SDS011;25997;50.214;19.354;2022-07-23T15:44:06;15.77;;;13.13;;
40284;SDS011;25997;50.214;19.354;2022-07-23T15:47:11;15.98;;;14.20;;
40284;SDS011;25997;50.214;19.354;2022-07-23T15:50:15;17.85;;;13.05;;
40284;SDS011;25997;50.214;19.354;2022-07-23T15:53:18;15.07;;;12.18;;
40284;SDS011;25997;50.214;19.354;2022-07-23T15:56:21;14.52;;;11.82;;
40284;SDS011;25997;50.214;19.354;2022-07-23T15:59:24;15.93;;;11.43;;
40284;SDS011;25997;50.214;19.354;2022-07-23T16:02:28;15.98;;;10.90;;
40284;SDS011;25997;50.214;19.354;2022-07-23T16:05:30;15.82;;;11.13;;
40284;SDS011;25997;50.214;19.354;2022-07-23T16:08:33;18.95;;;11.27;;
40284;SDS011;25997;50.214;19.354;2022-07-23T16:11:36;15.63;;;10.73;;
40284;SDS011;25997;50.214;19.354;2022-07-23T16:14:39;17.27;;;10.98;;
40284;SDS011;25997;50.214;19.354;2022-07-23T16:17:43;13.57;;;11.80;;
40284;SDS011;25997;50.214;19.354;2022-07-23T16:20:46;12.30;;;11.07;;
40284;SDS011;25997;50.214;19.354;2022-07-23T16:23:49;18.58;;;11.30;;
40284;SDS011;25997;50.214;19.354;2022-07-23T16:26:52;12.80;;;11.15;;
40284;SDS011;25997;50.214;19.354;2022-07-23T16:29:54;14.90;;;11.20;;
40284;SDS011;25997;50.214;19.354;2022-07-23T16:32:58;13.70;;;11.75;;
40284;SDS011;25997;50.214;19.354;2022-07-23T16:36:01;16.50;;;12.27;;
40284;SDS011;25997;50.214;19.354;2022-07-23T16:39:04;17.70;;;10.63;;
40284;SDS011;25997;50.214;19.354;2022-07-23T16:42:07;13.68;;;11.75;;
40284;SDS011;25997;50.214;19.354;2022-07-23T16:45:10;12.13;;;10.70;;
40284;SDS011;25997;50.214;19.354;2022-07-23T16:48:15;12.65;;;11.55;;
40284;SDS011;25997;50.214;19.354;2022-07-23T16:51:17;12.65;;;11.30;;
40284;SDS011;25997;50.214;19.354;2022-07-23T16:54:20;13.77;;;11.20;;
40284;SDS011;25997;50.214;19.354;2022-07-23T16:57:23;11.52;;;10.18;;
40284;SDS011;25997;50.214;19.354;2022-07-23T17:00:25;12.43;;;10.52;;
40284;SDS011;25997;50.214;19.354;2022-07-23T17:03:29;12.35;;;11.02;;
40284;SDS011;25997;50.214;19.354;2022-07-23T17:06:32;13.25;;;11.93;;
40284;SDS011;25997;50.214;19.354;2022-07-23T17:09:35;13.25;;;11.23;;
40284;SDS011;25997;50.214;19.354;2022-07-23T17:12:38;13.63;;;11.13;;
40284;SDS011;25997;50.214;19.354;2022-07-23T17:15:41;13.80;;;11.45;;
40284;SDS011;25997;50.214;19.354;2022-07-23T17:18:45;18.02;;;12.27;;
40284;SDS011;25997;50.214;19.354;2022-07-23T17:21:47;15.13;;;13.65;;
40284;SDS011;25997;50.214;19.354;2022-07-23T17:24:50;13.68;;;12.15;;
40284;SDS011;25997;50.214;19.354;2022-07-23T17:27:52;12.55;;;11.35;;
40284;SDS011;25997;50.214;19.354;2022-07-23T17:30:55;17.30;;;12.88;;
40284;SDS011;25997;50.214;19.354;2022-07-23T17:33:59;17.67;;;12.82;;
40284;SDS011;25997;50.214;19.354;2022-07-23T17:37:02;14.90;;;12.43;;
40284;SDS011;25997;50.214;19.354;2022-07-23T17:40:05;15.85;;;14.18;;
40284;SDS011;25997;50.214;19.354;2022-07-23T17:43:08;15.85;;;12.63;;
40284;SDS011;25997;50.214;19.354;2022-07-23T17:46:11;15.73;;;14.13;;
40284;SDS011;25997;50.214;19.354;2022-07-23T17:49:15;19.05;;;14.48;;
40284;SDS011;25997;50.214;19.354;2022-07-23T17:52:18;19.77;;;15.60;;
40284;SDS011;25997;50.214;19.354;2022-07-23T17:55:21;17.52;;;15.82;;
40284;SDS011;25997;50.214;19.354;2022-07-23T17:58:25;18.30;;;16.63;;